sensor_id;sensor_type;location;lat;lon;timestamp;pressure;altitude;pressure_sealevel;temperature;humidity
63405;BME280;49541;57.840;12.306;2023-05-07T00:00:55;101893.66;;;6.85;42.00
63405;BME280;49541;57.840;12.306;2023-05-07T00:05:56;101893.28;;;7.43;41.61
63405;BME280;49541;57.840;12.306;2023-05-07T00:10:56;101905.38;;;6.96;41.50
63405;BME280;49541;57.840;12.306;2023-05-07T00:15:56;101901.88;;;6.96;41.62
63405;BME280;49541;57.840;12.306;2023-05-07T00:20:56;101895.19;;;6.71;41.89
63405;BME280;49541;57.840;12.306;2023-05-07T00:25:56;101898.16;;;6.29;42.81
63405;BME280;49541;57.840;12.306;2023-05-07T00:30:57;101891.81;;;6.50;42.71
63405;BME280;49541;57.840;12.306;2023-05-07T00:35:57;101893.53;;;5.96;44.24
63405;BME280;49541;57.840;12.306;2023-05-07T00:40:57;101898.09;;;5.72;44.45
63405;BME280;49541;57.840;12.306;2023-05-07T00:45:57;101893.16;;;6.04;43.87
63405;BME280;49541;57.840;12.306;2023-05-07T00:50:57;101895.56;;;5.89;44.29
63405;BME280;49541;57.840;12.306;2023-05-07T00:55:58;101908.56;;;6.13;43.64
63405;BME280;49541;57.840;12.306;2023-05-07T01:00:58;101914.03;;;6.29;43.27
63405;BME280;49541;57.840;12.306;2023-05-07T01:05:58;101906.91;;;5.72;43.21
63405;BME280;49541;57.840;12.306;2023-05-07T01:10:59;101913.34;;;5.86;44.19
63405;BME280;49541;57.840;12.306;2023-05-07T01:16:00;101913.28;;;5.68;44.20
63405;BME280;49541;57.840;12.306;2023-05-07T01:21:00;101917.13;;;5.80;43.76
63405;BME280;49541;57.840;12.306;2023-05-07T01:26:01;101913.81;;;5.56;44.83
63405;BME280;49541;57.840;12.306;2023-05-07T01:31:02;101915.13;;;5.46;44.54
63405;BME280;49541;57.840;12.306;2023-05-07T01:36:03;101924.09;;;5.23;45.39
63405;BME280;49541;57.840;12.306;2023-05-07T01:41:06;101913.38;;;5.05;45.72
63405;BME280;49541;57.840;12.306;2023-05-07T01:46:06;101924.72;;;4.87;46.19
63405;BME280;49541;57.840;12.306;2023-05-07T01:51:08;101925.72;;;5.05;45.85
63405;BME280;49541;57.840;12.306;2023-05-07T01:56:08;101934.28;;;4.89;46.65
63405;BME280;49541;57.840;12.306;2023-05-07T02:01:09;101935.22;;;4.66;47.35
63405;BME280;49541;57.840;12.306;2023-05-07T02:06:09;101938.38;;;4.97;46.11
63405;BME280;49541;57.840;12.306;2023-05-07T02:11:09;101938.44;;;4.53;46.85
63405;BME280;49541;57.840;12.306;2023-05-07T02:16:09;101944.53;;;4.75;47.96
63405;BME280;49541;57.840;12.306;2023-05-07T02:21:10;101944.22;;;4.39;49.11
63405;BME280;49541;57.840;12.306;2023-05-07T02:26:10;101940.69;;;3.71;50.07
63405;BME280;49541;57.840;12.306;2023-05-07T02:31:11;101947.03;;;3.88;47.31
63405;BME280;49541;57.840;12.306;2023-05-07T02:36:11;101935.59;;;3.89;49.52
63405;BME280;49541;57.840;12.306;2023-05-07T02:41:12;101936.44;;;4.14;49.23
63405;BME280;49541;57.840;12.306;2023-05-07T02:46:12;101940.34;;;3.55;50.45
63405;BME280;49541;57.840;12.306;2023-05-07T02:51:12;101932.59;;;3.75;48.03
63405;BME280;49541;57.840;12.306;2023-05-07T02:56:12;101940.13;;;3.86;49.36
63405;BME280;49541;57.840;12.306;2023-05-07T03:01:13;101941.50;;;3.73;49.93
63405;BME280;49541;57.840;12.306;2023-05-07T03:06:13;101945.84;;;3.97;49.44
63405;BME280;49541;57.840;12.306;2023-05-07T03:11:14;101943.78;;;3.82;48.81
63405;BME280;49541;57.840;12.306;2023-05-07T03:16:15;101942.38;;;3.72;48.63
63405;BME280;49541;57.840;12.306;2023-05-07T03:21:15;101946.81;;;3.46;49.46
63405;BME280;49541;57.840;12.306;2023-05-07T03:26:16;101947.81;;;3.67;48.39
63405;BME280;49541;57.840;12.306;2023-05-07T03:31:16;101940.53;;;3.50;50.23
63405;BME280;49541;57.840;12.306;2023-05-07T03:36:16;101938.03;;;3.71;49.62
63405;BME280;49541;57.840;12.306;2023-05-07T03:41:16;101940.47;;;3.77;48.74
63405;BME280;49541;57.840;12.306;2023-05-07T03:46:16;101945.44;;;3.36;51.44
63405;BME280;49541;57.840;12.306;2023-05-07T03:51:17;101940.06;;;3.39;50.30
63405;BME280;49541;57.840;12.306;2023-05-07T03:56:17;101936.56;;;3.13;49.94
63405;BME280;49541;57.840;12.306;2023-05-07T04:01:17;101941.72;;;3.41;50.63
63405;BME280;49541;57.840;12.306;2023-05-07T04:06:17;101934.47;;;3.72;50.06
63405;BME280;49541;57.840;12.306;2023-05-07T04:11:17;101934.03;;;3.35;50.27
63405;BME280;49541;57.840;12.306;2023-05-07T04:16:18;101940.38;;;3.30;51.61
63405;BME280;49541;57.840;12.306;2023-05-07T04:21:18;101951.00;;;3.26;50.40
63405;BME280;49541;57.840;12.306;2023-05-07T04:26:19;101949.16;;;3.55;49.75
63405;BME280;49541;57.840;12.306;2023-05-07T04:31:19;101959.84;;;3.25;48.72
63405;BME280;49541;57.840;12.306;2023-05-07T04:36:19;101960.06;;;3.44;49.17
63405;BME280;49541;57.840;12.306;2023-05-07T04:41:19;101956.91;;;3.58;48.87
63405;BME280;49541;57.840;12.306;2023-05-07T04:46:20;101964.59;;;3.89;49.77
63405;BME280;49541;57.840;12.306;2023-05-07T04:51:20;101969.84;;;3.66;49.56
63405;BME280;49541;57.840;12.306;2023-05-07T04:56:21;101963.59;;;3.68;49.34
63405;BME280;49541;57.840;12.306;2023-05-07T05:01:21;101964.09;;;3.78;50.44
63405;BME280;49541;57.840;12.306;2023-05-07T05:06:21;101966.56;;;4.06;49.75
63405;BME280;49541;57.840;12.306;2023-05-07T05:11:21;101963.88;;;4.31;48.26
63405;BME280;49541;57.840;12.306;2023-05-07T05:16:25;101960.72;;;4.45;49.07
63405;BME280;49541;57.840;12.306;2023-05-07T05:21:25;101967.25;;;4.57;49.16
63405;BME280;49541;57.840;12.306;2023-05-07T05:26:26;101966.41;;;4.57;49.32
63405;BME280;49541;57.840;12.306;2023-05-07T05:31:26;101963.00;;;4.75;50.27
63405;BME280;49541;57.840;12.306;2023-05-07T05:36:26;101969.69;;;5.06;47.36
63405;BME280;49541;57.840;12.306;2023-05-07T05:41:26;101976.03;;;5.43;46.06
63405;BME280;49541;57.840;12.306;2023-05-07T05:46:27;101975.78;;;5.88;43.78
63405;BME280;49541;57.840;12.306;2023-05-07T05:51:27;101977.38;;;5.92;44.44
63405;BME280;49541;57.840;12.306;2023-05-07T05:56:27;101977.28;;;6.14;43.22
63405;BME280;49541;57.840;12.306;2023-05-07T06:01:27;101977.31;;;6.70;41.87
63405;BME280;49541;57.840;12.306;2023-05-07T06:06:27;101971.78;;;6.38;42.64
63405;BME280;49541;57.840;12.306;2023-05-07T06:11:28;101969.41;;;6.87;42.12
63405;BME280;49541;57.840;12.306;2023-05-07T06:16:28;101975.50;;;7.24;41.03
63405;BME280;49541;57.840;12.306;2023-05-07T06:21:28;101979.78;;;7.09;41.24
63405;BME280;49541;57.840;12.306;2023-05-07T06:26:28;101982.09;;;7.68;40.09
63405;BME280;49541;57.840;12.306;2023-05-07T06:31:29;101986.97;;;7.93;39.16
63405;BME280;49541;57.840;12.306;2023-05-07T06:36:31;101984.56;;;7.88;39.88
63405;BME280;49541;57.840;12.306;2023-05-07T06:41:31;101983.00;;;8.33;38.95
63405;BME280;49541;57.840;12.306;2023-05-07T06:46:32;101981.53;;;8.28;39.39
63405;BME280;49541;57.840;12.306;2023-05-07T06:51:32;101991.50;;;8.72;37.88
63405;BME280;49541;57.840;12.306;2023-05-07T06:56:33;101989.94;;;8.99;37.14
63405;BME280;49541;57.840;12.306;2023-05-07T07:01:33;101994.22;;;8.86;38.65
63405;BME280;49541;57.840;12.306;2023-05-07T07:06:34;101996.09;;;9.30;37.07
63405;BME280;49541;57.840;12.306;2023-05-07T07:11:34;101991.03;;;9.56;34.88
63405;BME280;49541;57.840;12.306;2023-05-07T07:16:34;101994.56;;;9.71;34.87
63405;BME280;49541;57.840;12.306;2023-05-07T07:21:34;101997.78;;;10.19;33.15
63405;BME280;49541;57.840;12.306;2023-05-07T07:26:35;101995.41;;;10.29;34.55
63405;BME280;49541;57.840;12.306;2023-05-07T07:31:35;101994.09;;;10.50;33.40
63405;BME280;49541;57.840;12.306;2023-05-07T07:36:35;101989.72;;;11.03;32.45
63405;BME280;49541;57.840;12.306;2023-05-07T07:41:35;101991.88;;;10.84;32.83
63405;BME280;49541;57.840;12.306;2023-05-07T07:46:36;101997.22;;;11.24;32.93
63405;BME280;49541;57.840;12.306;2023-05-07T07:51:36;101994.59;;;11.50;32.45
63405;BME280;49541;57.840;12.306;2023-05-07T07:56:36;101994.94;;;11.71;32.31
63405;BME280;49541;57.840;12.306;2023-05-07T08:01:36;101984.53;;;12.30;30.25
63405;BME280;49541;57.840;12.306;2023-05-07T08:06:36;101983.59;;;12.31;30.81
63405;BME280;49541;57.840;12.306;2023-05-07T08:11:37;101981.66;;;12.33;30.91
63405;BME280;49541;57.840;12.306;2023-05-07T08:16:37;101989.66;;;12.70;30.57
63405;BME280;49541;57.840;12.306;2023-05-07T08:21:41;101987.75;;;13.07;28.80
63405;BME280;49541;57.840;12.306;2023-05-07T08:26:41;101982.66;;;13.40;29.05
63405;BME280;49541;57.840;12.306;2023-05-07T08:31:41;101983.81;;;13.71;29.21
63405;BME280;49541;57.840;12.306;2023-05-07T08:36:41;101988.19;;;13.72;28.64
63405;BME280;49541;57.840;12.306;2023-05-07T08:41:44;101977.16;;;13.88;28.24
63405;BME280;49541;57.840;12.306;2023-05-07T08:46:45;101987.22;;;14.29;28.14
63405;BME280;49541;57.840;12.306;2023-05-07T08:51:48;101977.09;;;14.56;27.54
63405;BME280;49541;57.840;12.306;2023-05-07T08:56:48;101969.13;;;14.77;26.69
63405;BME280;49541;57.840;12.306;2023-05-07T09:01:48;101973.84;;;15.17;27.07
63405;BME280;49541;57.840;12.306;2023-05-07T09:06:48;101974.03;;;15.25;25.59
63405;BME280;49541;57.840;12.306;2023-05-07T09:11:56;101972.06;;;15.27;25.37
63405;BME280;49541;57.840;12.306;2023-05-07T09:16:56;101975.72;;;15.68;24.03
63405;BME280;49541;57.840;12.306;2023-05-07T09:22:03;101963.31;;;15.97;24.65
63405;BME280;49541;57.840;12.306;2023-05-07T09:27:04;101975.81;;;16.68;23.16
63405;BME280;49541;57.840;12.306;2023-05-07T09:32:05;101979.53;;;16.96;22.23
63405;BME280;49541;57.840;12.306;2023-05-07T09:37:06;101976.41;;;17.01;22.46
63405;BME280;49541;57.840;12.306;2023-05-07T09:42:06;101966.81;;;17.08;21.83
63405;BME280;49541;57.840;12.306;2023-05-07T09:47:07;101967.34;;;17.22;22.50
63405;BME280;49541;57.840;12.306;2023-05-07T09:52:07;101973.22;;;17.64;21.47
63405;BME280;49541;57.840;12.306;2023-05-07T09:57:10;101961.56;;;18.11;21.44
63405;BME280;49541;57.840;12.306;2023-05-07T10:02:11;101964.97;;;18.40;19.58
63405;BME280;49541;57.840;12.306;2023-05-07T10:07:13;101959.50;;;18.78;21.80
63405;BME280;49541;57.840;12.306;2023-05-07T10:12:14;101954.81;;;19.50;17.98
63405;BME280;49541;57.840;12.306;2023-05-07T10:17:16;101954.69;;;18.90;19.90
63405;BME280;49541;57.840;12.306;2023-05-07T10:22:16;101950.94;;;19.53;19.23
63405;BME280;49541;57.840;12.306;2023-05-07T10:27:16;101956.16;;;19.46;19.84
63405;BME280;49541;57.840;12.306;2023-05-07T10:37:20;101938.06;;;19.99;18.30
63405;BME280;49541;57.840;12.306;2023-05-07T10:42:21;101949.84;;;20.32;18.80
63405;BME280;49541;57.840;12.306;2023-05-07T10:47:21;101944.00;;;20.11;17.14
63405;BME280;49541;57.840;12.306;2023-05-07T10:52:22;101949.09;;;20.64;20.41
63405;BME280;49541;57.840;12.306;2023-05-07T10:57:33;101949.94;;;20.73;18.39
63405;BME280;49541;57.840;12.306;2023-05-07T11:07:58;101946.59;;;21.04;17.13
63405;BME280;49541;57.840;12.306;2023-05-07T11:12:58;101931.69;;;21.33;17.57
63405;BME280;49541;57.840;12.306;2023-05-07T11:17:59;101928.63;;;21.44;18.85
63405;BME280;49541;57.840;12.306;2023-05-07T11:22:59;101925.75;;;21.37;17.33
63405;BME280;49541;57.840;12.306;2023-05-07T11:28:07;101927.16;;;20.76;18.08
63405;BME280;49541;57.840;12.306;2023-05-07T11:33:10;101937.09;;;21.41;18.62
63405;BME280;49541;57.840;12.306;2023-05-07T11:38:10;101935.78;;;22.32;17.17
63405;BME280;49541;57.840;12.306;2023-05-07T11:43:11;101921.25;;;23.17;15.86
63405;BME280;49541;57.840;12.306;2023-05-07T11:48:11;101914.44;;;21.17;16.29
63405;BME280;49541;57.840;12.306;2023-05-07T11:53:12;101917.06;;;21.66;17.20
63405;BME280;49541;57.840;12.306;2023-05-07T11:58:12;101922.38;;;22.62;17.94
63405;BME280;49541;57.840;12.306;2023-05-07T12:03:20;101920.97;;;22.89;18.57
63405;BME280;49541;57.840;12.306;2023-05-07T12:08:21;101917.47;;;22.57;16.21
63405;BME280;49541;57.840;12.306;2023-05-07T12:13:22;101914.22;;;22.62;18.42
63405;BME280;49541;57.840;12.306;2023-05-07T12:18:23;101902.63;;;23.74;14.97
63405;BME280;49541;57.840;12.306;2023-05-07T12:23:23;101907.75;;;24.92;16.05
63405;BME280;49541;57.840;12.306;2023-05-07T12:28:24;101896.97;;;26.10;14.97
63405;BME280;49541;57.840;12.306;2023-05-07T12:33:25;101895.75;;;26.26;15.77
63405;BME280;49541;57.840;12.306;2023-05-07T12:38:25;101895.75;;;25.71;14.82
63405;BME280;49541;57.840;12.306;2023-05-07T12:43:26;101884.06;;;27.12;14.20
63405;BME280;49541;57.840;12.306;2023-05-07T12:48:27;101888.50;;;26.67;14.54
63405;BME280;49541;57.840;12.306;2023-05-07T12:53:27;101901.34;;;27.98;14.35
63405;BME280;49541;57.840;12.306;2023-05-07T12:58:32;101902.31;;;28.55;13.43
63405;BME280;49541;57.840;12.306;2023-05-07T13:03:35;101890.97;;;28.45;13.59
63405;BME280;49541;57.840;12.306;2023-05-07T13:08:36;101892.03;;;28.76;13.14
63405;BME280;49541;57.840;12.306;2023-05-07T13:13:38;101896.31;;;29.59;12.12
63405;BME280;49541;57.840;12.306;2023-05-07T13:18:39;101891.00;;;27.42;12.78
63405;BME280;49541;57.840;12.306;2023-05-07T13:23:39;101885.56;;;26.75;12.11
63405;BME280;49541;57.840;12.306;2023-05-07T13:28:40;101862.69;;;24.25;13.68
63405;BME280;49541;57.840;12.306;2023-05-07T13:33:40;101865.81;;;25.15;13.35
63405;BME280;49541;57.840;12.306;2023-05-07T13:38:41;101869.84;;;22.55;15.01
63405;BME280;49541;57.840;12.306;2023-05-07T13:43:41;101865.72;;;23.35;14.07
63405;BME280;49541;57.840;12.306;2023-05-07T13:48:41;101868.75;;;24.85;14.33
63405;BME280;49541;57.840;12.306;2023-05-07T13:53:41;101862.63;;;27.16;13.78
63405;BME280;49541;57.840;12.306;2023-05-07T13:58:42;101861.13;;;28.37;13.14
63405;BME280;49541;57.840;12.306;2023-05-07T14:03:42;101854.25;;;27.83;12.58
63405;BME280;49541;57.840;12.306;2023-05-07T14:08:42;101856.75;;;27.19;13.72
63405;BME280;49541;57.840;12.306;2023-05-07T14:13:42;101855.66;;;24.31;13.17
63405;BME280;49541;57.840;12.306;2023-05-07T14:18:42;101838.06;;;23.90;14.12
63405;BME280;49541;57.840;12.306;2023-05-07T14:23:42;101843.41;;;23.84;14.13
63405;BME280;49541;57.840;12.306;2023-05-07T14:28:43;101849.34;;;23.28;14.56
63405;BME280;49541;57.840;12.306;2023-05-07T14:33:46;101842.09;;;22.44;14.86
63405;BME280;49541;57.840;12.306;2023-05-07T14:38:47;101840.41;;;22.43;15.47
63405;BME280;49541;57.840;12.306;2023-05-07T14:43:47;101829.81;;;22.57;15.20
63405;BME280;49541;57.840;12.306;2023-05-07T14:48:49;101829.34;;;24.17;15.78
63405;BME280;49541;57.840;12.306;2023-05-07T14:53:50;101836.59;;;23.14;15.20
63405;BME280;49541;57.840;12.306;2023-05-07T14:58:50;101828.94;;;20.00;20.85
63405;BME280;49541;57.840;12.306;2023-05-07T15:03:50;101821.97;;;19.81;20.17
63405;BME280;49541;57.840;12.306;2023-05-07T15:08:50;101829.50;;;19.35;21.11
63405;BME280;49541;57.840;12.306;2023-05-07T15:13:50;101832.31;;;18.99;22.25
63405;BME280;49541;57.840;12.306;2023-05-07T15:18:51;101839.41;;;18.20;22.62
63405;BME280;49541;57.840;12.306;2023-05-07T15:23:51;101836.25;;;18.42;21.63
63405;BME280;49541;57.840;12.306;2023-05-07T15:28:51;101839.00;;;18.15;22.71
63405;BME280;49541;57.840;12.306;2023-05-07T15:33:52;101840.94;;;18.58;22.43
63405;BME280;49541;57.840;12.306;2023-05-07T15:38:52;101861.53;;;18.41;22.58
63405;BME280;49541;57.840;12.306;2023-05-07T15:43:52;101852.00;;;18.01;22.79
63405;BME280;49541;57.840;12.306;2023-05-07T15:48:52;101847.16;;;18.05;22.59
63405;BME280;49541;57.840;12.306;2023-05-07T15:53:52;101847.72;;;18.45;22.38
63405;BME280;49541;57.840;12.306;2023-05-07T15:58:53;101844.78;;;18.92;21.92
63405;BME280;49541;57.840;12.306;2023-05-07T16:03:53;101849.56;;;18.26;23.17
63405;BME280;49541;57.840;12.306;2023-05-07T16:08:53;101837.22;;;17.50;23.54
63405;BME280;49541;57.840;12.306;2023-05-07T16:13:53;101847.88;;;17.70;23.44
63405;BME280;49541;57.840;12.306;2023-05-07T16:18:54;101845.03;;;17.81;23.59
63405;BME280;49541;57.840;12.306;2023-05-07T16:23:54;101832.53;;;17.90;23.58
63405;BME280;49541;57.840;12.306;2023-05-07T16:28:55;101844.00;;;18.10;23.25
63405;BME280;49541;57.840;12.306;2023-05-07T16:33:55;101832.09;;;18.48;22.98
63405;BME280;49541;57.840;12.306;2023-05-07T16:38:55;101834.06;;;18.28;22.83
63405;BME280;49541;57.840;12.306;2023-05-07T16:43:55;101840.84;;;18.32;23.13
63405;BME280;49541;57.840;12.306;2023-05-07T16:48:56;101845.28;;;18.77;22.40
63405;BME280;49541;57.840;12.306;2023-05-07T16:53:56;101843.81;;;17.28;24.29
63405;BME280;49541;57.840;12.306;2023-05-07T16:58:57;101845.75;;;17.73;24.06
63405;BME280;49541;57.840;12.306;2023-05-07T17:03:57;101850.69;;;17.78;23.90
63405;BME280;49541;57.840;12.306;2023-05-07T17:08:57;101851.03;;;18.38;22.91
63405;BME280;49541;57.840;12.306;2023-05-07T17:13:57;101851.69;;;17.77;23.75
63405;BME280;49541;57.840;12.306;2023-05-07T17:18:58;101844.75;;;17.47;24.30
63405;BME280;49541;57.840;12.306;2023-05-07T17:23:58;101844.91;;;17.45;24.91
63405;BME280;49541;57.840;12.306;2023-05-07T17:28:58;101853.16;;;17.99;24.73
63405;BME280;49541;57.840;12.306;2023-05-07T17:33:58;101849.78;;;17.32;24.90
63405;BME280;49541;57.840;12.306;2023-05-07T17:38:58;101857.84;;;17.32;24.99
63405;BME280;49541;57.840;12.306;2023-05-07T17:43:59;101852.41;;;17.04;25.58
63405;BME280;49541;57.840;12.306;2023-05-07T17:48:59;101855.16;;;17.32;25.33
63405;BME280;49541;57.840;12.306;2023-05-07T17:53:59;101860.81;;;17.29;25.59
63405;BME280;49541;57.840;12.306;2023-05-07T17:58:59;101866.25;;;17.09;25.96
63405;BME280;49541;57.840;12.306;2023-05-07T18:04:00;101868.25;;;16.49;27.07
63405;BME280;49541;57.840;12.306;2023-05-07T18:09:00;101865.28;;;16.42;27.48
63405;BME280;49541;57.840;12.306;2023-05-07T18:14:00;101874.28;;;16.12;28.06
63405;BME280;49541;57.840;12.306;2023-05-07T18:19:01;101886.38;;;16.37;28.00
63405;BME280;49541;57.840;12.306;2023-05-07T18:24:01;101880.72;;;16.59;28.38
63405;BME280;49541;57.840;12.306;2023-05-07T18:29:01;101882.97;;;17.03;27.77
63405;BME280;49541;57.840;12.306;2023-05-07T18:34:01;101890.31;;;17.11;27.00
63405;BME280;49541;57.840;12.306;2023-05-07T18:39:02;101883.78;;;17.13;27.65
63405;BME280;49541;57.840;12.306;2023-05-07T18:44:03;101884.06;;;17.30;28.70
63405;BME280;49541;57.840;12.306;2023-05-07T18:49:03;101896.88;;;17.46;26.62
63405;BME280;49541;57.840;12.306;2023-05-07T18:54:03;101906.38;;;17.40;26.81
63405;BME280;49541;57.840;12.306;2023-05-07T18:59:03;101909.34;;;16.80;27.50
63405;BME280;49541;57.840;12.306;2023-05-07T19:04:03;101915.50;;;16.42;28.19
63405;BME280;49541;57.840;12.306;2023-05-07T19:09:04;101918.81;;;16.05;28.70
63405;BME280;49541;57.840;12.306;2023-05-07T19:14:04;101920.59;;;15.64;29.17
63405;BME280;49541;57.840;12.306;2023-05-07T19:19:04;101929.75;;;15.61;29.40
63405;BME280;49541;57.840;12.306;2023-05-07T19:24:05;101924.09;;;15.33;29.59
63405;BME280;49541;57.840;12.306;2023-05-07T19:29:06;101929.22;;;15.98;28.78
63405;BME280;49541;57.840;12.306;2023-05-07T19:34:06;101935.31;;;15.18;30.03
63405;BME280;49541;57.840;12.306;2023-05-07T19:39:06;101934.72;;;14.93;30.77
63405;BME280;49541;57.840;12.306;2023-05-07T19:44:06;101935.22;;;14.87;33.09
63405;BME280;49541;57.840;12.306;2023-05-07T19:49:06;101937.84;;;14.66;33.33
63405;BME280;49541;57.840;12.306;2023-05-07T19:54:07;101944.66;;;14.04;34.66
63405;BME280;49541;57.840;12.306;2023-05-07T19:59:07;101943.06;;;13.56;35.90
63405;BME280;49541;57.840;12.306;2023-05-07T20:04:07;101951.66;;;13.48;36.32
63405;BME280;49541;57.840;12.306;2023-05-07T20:09:07;101950.31;;;13.07;36.59
63405;BME280;49541;57.840;12.306;2023-05-07T20:14:11;101954.91;;;12.94;37.84
63405;BME280;49541;57.840;12.306;2023-05-07T20:19:11;101955.53;;;13.33;37.50
63405;BME280;49541;57.840;12.306;2023-05-07T20:24:11;101958.56;;;12.93;37.56
63405;BME280;49541;57.840;12.306;2023-05-07T20:29:12;101954.78;;;12.96;38.19
63405;BME280;49541;57.840;12.306;2023-05-07T20:34:12;101954.56;;;12.75;37.43
63405;BME280;49541;57.840;12.306;2023-05-07T20:39:12;101964.75;;;12.69;37.95
63405;BME280;49541;57.840;12.306;2023-05-07T20:44:15;101971.84;;;12.58;38.23
63405;BME280;49541;57.840;12.306;2023-05-07T20:49:15;101971.50;;;12.25;36.85
63405;BME280;49541;57.840;12.306;2023-05-07T20:54:16;101971.69;;;12.11;37.59
63405;BME280;49541;57.840;12.306;2023-05-07T20:59:16;101975.28;;;11.72;39.41
63405;BME280;49541;57.840;12.306;2023-05-07T21:04:16;101981.38;;;11.86;37.72
63405;BME280;49541;57.840;12.306;2023-05-07T21:09:16;101976.13;;;11.85;38.48
63405;BME280;49541;57.840;12.306;2023-05-07T21:14:17;101974.50;;;11.31;39.36
63405;BME280;49541;57.840;12.306;2023-05-07T21:19:17;101985.31;;;11.42;38.34
63405;BME280;49541;57.840;12.306;2023-05-07T21:24:17;101985.84;;;11.47;38.72
63405;BME280;49541;57.840;12.306;2023-05-07T21:29:17;101989.03;;;11.40;38.37
63405;BME280;49541;57.840;12.306;2023-05-07T21:34:18;101992.56;;;11.40;38.94
63405;BME280;49541;57.840;12.306;2023-05-07T21:39:18;101990.50;;;11.31;37.90
63405;BME280;49541;57.840;12.306;2023-05-07T21:44:21;101993.63;;;11.25;40.04
63405;BME280;49541;57.840;12.306;2023-05-07T21:49:22;101999.63;;;11.01;41.88
63405;BME280;49541;57.840;12.306;2023-05-07T21:54:22;102003.03;;;10.76;43.18
63405;BME280;49541;57.840;12.306;2023-05-07T21:59:22;102003.88;;;10.21;44.14
63405;BME280;49541;57.840;12.306;2023-05-07T22:04:22;102011.78;;;9.79;45.50
63405;BME280;49541;57.840;12.306;2023-05-07T22:09:22;102003.00;;;9.63;45.75
63405;BME280;49541;57.840;12.306;2023-05-07T22:14:22;102007.38;;;9.64;45.19
63405;BME280;49541;57.840;12.306;2023-05-07T22:19:23;102012.31;;;9.56;45.56
63405;BME280;49541;57.840;12.306;2023-05-07T22:24:23;102010.63;;;9.98;45.77
63405;BME280;49541;57.840;12.306;2023-05-07T22:29:23;102012.25;;;9.27;45.27
63405;BME280;49541;57.840;12.306;2023-05-07T22:34:23;102010.28;;;9.15;47.06
63405;BME280;49541;57.840;12.306;2023-05-07T22:39:23;102026.56;;;9.69;47.16
63405;BME280;49541;57.840;12.306;2023-05-07T22:44:23;102035.72;;;8.57;48.88
63405;BME280;49541;57.840;12.306;2023-05-07T22:49:24;102030.66;;;8.19;50.33
63405;BME280;49541;57.840;12.306;2023-05-07T22:54:24;102027.59;;;7.43;52.20
63405;BME280;49541;57.840;12.306;2023-05-07T22:59:25;102032.56;;;7.31;52.99
63405;BME280;49541;57.840;12.306;2023-05-07T23:04:25;102029.28;;;7.44;52.97
63405;BME280;49541;57.840;12.306;2023-05-07T23:09:25;102031.16;;;7.59;52.13
63405;BME280;49541;57.840;12.306;2023-05-07T23:14:25;102032.25;;;7.37;51.72
63405;BME280;49541;57.840;12.306;2023-05-07T23:19:26;102038.63;;;7.86;51.31
63405;BME280;49541;57.840;12.306;2023-05-07T23:24:26;102037.16;;;7.63;51.08
63405;BME280;49541;57.840;12.306;2023-05-07T23:29:26;102044.06;;;7.83;51.24
63405;BME280;49541;57.840;12.306;2023-05-07T23:34:26;102044.16;;;8.14;50.58
63405;BME280;49541;57.840;12.306;2023-05-07T23:39:26;102051.97;;;7.84;50.96
63405;BME280;49541;57.840;12.306;2023-05-07T23:44:26;102045.47;;;7.20;52.51
63405;BME280;49541;57.840;12.306;2023-05-07T23:49:27;102046.44;;;7.19;52.84
63405;BME280;49541;57.840;12.306;2023-05-07T23:54:27;102051.47;;;7.06;52.68
63405;BME280;49541;57.840;12.306;2023-05-07T23:59:27;102050.09;;;7.86;51.63
